HPN weather

Westchester County Airport
White Plains, New York, United States

Public forecast

Using degrees Fahrenheit for public forecast. Weather courtesy of forecast.io.

Current aviation weather report (METAR) for Westchester County Airport

Retrieved 2019/10/21 17:56 UTC (1 hour ago):

KHPN 211756Z VRB05KT 10SM CLR 19/04 A3004 RMK AO2 SLP172 T01940039 10194 20089 58006

Aviation forecast (TAF) for Westchester County Airport

Retrieved 2019/10/21 18:36 UTC (28 minutes ago):

TAF KHPN 211733Z 2118/2218 03008KT P6SM FEW025 FM212000 06005KT P6SM FEW030 FM220000 06004KT P6SM SCT250 FM221500 08006KT P6SM VCSH OVC015 AMD NOT SKED